Aviation Digital Data Service (ADDS)

Output produced by METARs form (2253 UTC 01 February 2023)
found at http://www.aviationweather.gov/metar/data/
 
KTCL 012008Z 0120/0218 35005KT P6SM OVC024 
     FM020100 VRB04KT 6SM -RA BR OVC010 
     FM020600 VRB04KT 5SM -RA BR OVC006 
     FM021100 01005KT 4SM -RA BR OVC005 
     FM021300 03005KT 3SM RA BR OVC004 
     FM021400 03005KT 2SM RA BR OVC004